sensor_id;sensor_type;location;lat;lon;timestamp;temperature;humidity
11824;DHT22;5969;50.780;7.726;2023-03-19T08:04:28;10.90;99.90
11824;DHT22;5969;50.780;7.726;2023-03-19T08:06:56;10.90;99.90
11824;DHT22;5969;50.780;7.726;2023-03-19T08:09:22;10.70;99.90
11824;DHT22;5969;50.780;7.726;2023-03-19T08:11:49;10.70;99.90
11824;DHT22;5969;50.780;7.726;2023-03-19T08:14:16;10.80;99.90
11824;DHT22;5969;50.780;7.726;2023-03-19T08:16:49;10.90;99.90
11824;DHT22;5969;50.780;7.726;2023-03-19T08:19:16;10.90;99.90
11824;DHT22;5969;50.780;7.726;2023-03-19T08:21:44;11.10;99.90
11824;DHT22;5969;50.780;7.726;2023-03-19T08:24:11;11.30;99.90
11824;DHT22;5969;50.780;7.726;2023-03-19T08:26:37;11.20;99.90
11824;DHT22;5969;50.780;7.726;2023-03-19T08:29:04;11.10;99.90
11824;DHT22;5969;50.780;7.726;2023-03-19T08:31:31;11.30;99.90
11824;DHT22;5969;50.780;7.726;2023-03-19T08:33:58;11.20;99.90
11824;DHT22;5969;50.780;7.726;2023-03-19T08:36:27;11.20;99.90
11824;DHT22;5969;50.780;7.726;2023-03-19T08:38:55;11.40;99.90
11824;DHT22;5969;50.780;7.726;2023-03-19T08:41:23;11.30;99.90
11824;DHT22;5969;50.780;7.726;2023-03-19T08:43:50;11.30;99.90
11824;DHT22;5969;50.780;7.726;2023-03-19T08:46:17;11.30;99.90
11824;DHT22;5969;50.780;7.726;2023-03-19T08:48:44;11.40;99.90
11824;DHT22;5969;50.780;7.726;2023-03-19T08:51:11;11.40;99.90
11824;DHT22;5969;50.780;7.726;2023-03-19T08:53:37;11.30;99.90
11824;DHT22;5969;50.780;7.726;2023-03-19T08:56:06;11.20;99.90
11824;DHT22;5969;50.780;7.726;2023-03-19T08:58:33;11.10;99.90
11824;DHT22;5969;50.780;7.726;2023-03-19T09:01:01;11.10;99.90
11824;DHT22;5969;50.780;7.726;2023-03-19T09:03:28;11.20;99.90
11824;DHT22;5969;50.780;7.726;2023-03-19T09:05:57;11.10;99.90
11824;DHT22;5969;50.780;7.726;2023-03-19T09:08:24;11.10;99.90
11824;DHT22;5969;50.780;7.726;2023-03-19T09:10:50;11.20;99.90
11824;DHT22;5969;50.780;7.726;2023-03-19T09:13:18;11.00;99.90
11824;DHT22;5969;50.780;7.726;2023-03-19T09:15:45;11.20;99.90
11824;DHT22;5969;50.780;7.726;2023-03-19T09:18:12;11.20;99.90
11824;DHT22;5969;50.780;7.726;2023-03-19T09:20:38;11.20;99.90
11824;DHT22;5969;50.780;7.726;2023-03-19T09:23:05;11.20;99.90
11824;DHT22;5969;50.780;7.726;2023-03-19T09:25:32;11.10;99.90
11824;DHT22;5969;50.780;7.726;2023-03-19T09:27:59;11.10;99.90
11824;DHT22;5969;50.780;7.726;2023-03-19T09:30:27;11.10;99.90
11824;DHT22;5969;50.780;7.726;2023-03-19T09:32:54;11.20;99.90
11824;DHT22;5969;50.780;7.726;2023-03-19T09:35:21;11.20;99.90
11824;DHT22;5969;50.780;7.726;2023-03-19T09:37:48;11.20;99.90
11824;DHT22;5969;50.780;7.726;2023-03-19T09:40:20;11.10;99.90
11824;DHT22;5969;50.780;7.726;2023-03-19T09:42:57;11.20;99.90
11824;DHT22;5969;50.780;7.726;2023-03-19T09:45:27;11.10;99.90
11824;DHT22;5969;50.780;7.726;2023-03-19T09:47:59;11.10;99.90
11824;DHT22;5969;50.780;7.726;2023-03-19T09:50:30;11.10;99.90
11824;DHT22;5969;50.780;7.726;2023-03-19T09:53:02;11.20;99.90
11824;DHT22;5969;50.780;7.726;2023-03-19T09:55:39;11.30;99.90
11824;DHT22;5969;50.780;7.726;2023-03-19T09:58:12;11.40;99.90
11824;DHT22;5969;50.780;7.726;2023-03-19T10:00:42;11.50;99.90
11824;DHT22;5969;50.780;7.726;2023-03-19T10:03:22;11.60;99.90
11824;DHT22;5969;50.780;7.726;2023-03-19T10:06:01;11.70;99.90
11824;DHT22;5969;50.780;7.726;2023-03-19T10:08:57;11.70;99.90
11824;DHT22;5969;50.780;7.726;2023-03-19T10:11:37;12.00;99.90
11824;DHT22;5969;50.780;7.726;2023-03-19T10:14:22;12.20;99.90
11824;DHT22;5969;50.780;7.726;2023-03-19T10:16:57;12.50;99.90
11824;DHT22;5969;50.780;7.726;2023-03-19T10:19:36;12.60;99.90
11824;DHT22;5969;50.780;7.726;2023-03-19T10:22:09;12.80;99.90
11824;DHT22;5969;50.780;7.726;2023-03-19T10:24:39;13.00;99.90
11824;DHT22;5969;50.780;7.726;2023-03-19T10:27:11;13.00;99.90
11824;DHT22;5969;50.780;7.726;2023-03-19T10:29:39;12.90;99.90
11824;DHT22;5969;50.780;7.726;2023-03-19T10:32:15;13.00;99.90
11824;DHT22;5969;50.780;7.726;2023-03-19T10:34:44;12.80;99.90
11824;DHT22;5969;50.780;7.726;2023-03-19T10:37:14;12.70;99.90
11824;DHT22;5969;50.780;7.726;2023-03-19T10:39:45;13.10;99.90
11824;DHT22;5969;50.780;7.726;2023-03-19T10:42:35;13.50;99.90
11824;DHT22;5969;50.780;7.726;2023-03-19T10:45:11;13.80;99.90
11824;DHT22;5969;50.780;7.726;2023-03-19T10:47:43;14.30;99.90
11824;DHT22;5969;50.780;7.726;2023-03-19T10:50:14;14.10;99.90
11824;DHT22;5969;50.780;7.726;2023-03-19T10:52:42;13.90;99.90
11824;DHT22;5969;50.780;7.726;2023-03-19T10:55:13;13.70;99.90
11824;DHT22;5969;50.780;7.726;2023-03-19T10:57:42;13.60;99.90
11824;DHT22;5969;50.780;7.726;2023-03-19T11:00:16;13.40;99.90
11824;DHT22;5969;50.780;7.726;2023-03-19T11:02:49;13.40;99.90
11824;DHT22;5969;50.780;7.726;2023-03-19T11:05:25;13.20;99.90
11824;DHT22;5969;50.780;7.726;2023-03-19T11:07:56;13.20;99.90
11824;DHT22;5969;50.780;7.726;2023-03-19T11:10:25;12.90;99.90
11824;DHT22;5969;50.780;7.726;2023-03-19T11:12:55;13.00;99.90
11824;DHT22;5969;50.780;7.726;2023-03-19T11:15:27;13.00;99.90
11824;DHT22;5969;50.780;7.726;2023-03-19T11:17:59;13.20;99.90
11824;DHT22;5969;50.780;7.726;2023-03-19T11:20:28;13.40;99.90
11824;DHT22;5969;50.780;7.726;2023-03-19T11:22:56;13.60;99.90
11824;DHT22;5969;50.780;7.726;2023-03-19T11:25:28;13.80;99.90
11824;DHT22;5969;50.780;7.726;2023-03-19T11:27:59;14.00;99.90
11824;DHT22;5969;50.780;7.726;2023-03-19T11:30:34;14.30;99.90
11824;DHT22;5969;50.780;7.726;2023-03-19T11:33:21;14.20;99.90
11824;DHT22;5969;50.780;7.726;2023-03-19T11:35:58;14.10;99.90
11824;DHT22;5969;50.780;7.726;2023-03-19T11:38:31;14.30;99.90
11824;DHT22;5969;50.780;7.726;2023-03-19T11:41:07;14.60;99.90
11824;DHT22;5969;50.780;7.726;2023-03-19T11:43:48;14.10;99.90
11824;DHT22;5969;50.780;7.726;2023-03-19T11:46:25;15.60;99.90
11824;DHT22;5969;50.780;7.726;2023-03-19T11:49:16;16.40;99.90
11824;DHT22;5969;50.780;7.726;2023-03-19T11:51:50;17.20;99.90
11824;DHT22;5969;50.780;7.726;2023-03-19T11:54:22;17.70;99.90
11824;DHT22;5969;50.780;7.726;2023-03-19T11:56:55;18.60;99.90
11824;DHT22;5969;50.780;7.726;2023-03-19T11:59:35;18.40;99.90
11824;DHT22;5969;50.780;7.726;2023-03-19T12:02:29;18.10;99.90
11824;DHT22;5969;50.780;7.726;2023-03-19T12:05:14;17.80;99.90
11824;DHT22;5969;50.780;7.726;2023-03-19T12:07:51;17.50;99.90
11824;DHT22;5969;50.780;7.726;2023-03-19T12:10:41;16.70;99.90
11824;DHT22;5969;50.780;7.726;2023-03-19T12:13:20;16.20;99.90
11824;DHT22;5969;50.780;7.726;2023-03-19T12:15:58;16.10;99.90
11824;DHT22;5969;50.780;7.726;2023-03-19T12:18:47;15.80;99.90
11824;DHT22;5969;50.780;7.726;2023-03-19T12:21:26;15.70;99.90
11824;DHT22;5969;50.780;7.726;2023-03-19T12:24:02;15.50;99.90
11824;DHT22;5969;50.780;7.726;2023-03-19T12:26:38;15.70;99.90
11824;DHT22;5969;50.780;7.726;2023-03-19T12:29:17;15.80;99.90
11824;DHT22;5969;50.780;7.726;2023-03-19T12:32:04;16.10;99.90
11824;DHT22;5969;50.780;7.726;2023-03-19T12:34:35;16.20;99.90
11824;DHT22;5969;50.780;7.726;2023-03-19T12:37:15;16.00;99.90
11824;DHT22;5969;50.780;7.726;2023-03-19T12:39:50;16.20;99.90
11824;DHT22;5969;50.780;7.726;2023-03-19T12:42:18;15.80;99.90
11824;DHT22;5969;50.780;7.726;2023-03-19T12:44:49;16.00;99.90
11824;DHT22;5969;50.780;7.726;2023-03-19T12:47:21;15.50;99.90
11824;DHT22;5969;50.780;7.726;2023-03-19T12:49:53;15.00;99.90
11824;DHT22;5969;50.780;7.726;2023-03-19T12:52:27;14.70;99.90
11824;DHT22;5969;50.780;7.726;2023-03-19T12:55:02;14.40;99.90
11824;DHT22;5969;50.780;7.726;2023-03-19T12:57:34;14.10;99.90
11824;DHT22;5969;50.780;7.726;2023-03-19T13:00:06;14.40;99.90
11824;DHT22;5969;50.780;7.726;2023-03-19T13:02:41;15.10;99.90
11824;DHT22;5969;50.780;7.726;2023-03-19T13:05:17;15.60;99.90
11824;DHT22;5969;50.780;7.726;2023-03-19T13:07:53;15.90;99.90
11824;DHT22;5969;50.780;7.726;2023-03-19T13:10:23;15.60;99.90
11824;DHT22;5969;50.780;7.726;2023-03-19T13:12:51;14.90;99.90
11824;DHT22;5969;50.780;7.726;2023-03-19T13:15:23;14.90;99.90
11824;DHT22;5969;50.780;7.726;2023-03-19T13:17:59;15.70;99.90
11824;DHT22;5969;50.780;7.726;2023-03-19T13:20:47;17.80;99.90
11824;DHT22;5969;50.780;7.726;2023-03-19T13:23:21;18.70;99.90
11824;DHT22;5969;50.780;7.726;2023-03-19T13:25:50;18.00;99.90
11824;DHT22;5969;50.780;7.726;2023-03-19T13:28:26;17.20;99.90
11824;DHT22;5969;50.780;7.726;2023-03-19T13:31:01;16.20;99.90
11824;DHT22;5969;50.780;7.726;2023-03-19T13:33:28;15.70;99.90
11824;DHT22;5969;50.780;7.726;2023-03-19T13:35:57;16.20;99.90
11824;DHT22;5969;50.780;7.726;2023-03-19T13:38:38;16.70;99.90
11824;DHT22;5969;50.780;7.726;2023-03-19T13:41:47;16.40;99.90
11824;DHT22;5969;50.780;7.726;2023-03-19T13:44:38;15.40;99.90
11824;DHT22;5969;50.780;7.726;2023-03-19T13:47:39;15.00;99.90
11824;DHT22;5969;50.780;7.726;2023-03-19T13:50:24;15.10;99.90
11824;DHT22;5969;50.780;7.726;2023-03-19T13:52:53;15.10;99.90
11824;DHT22;5969;50.780;7.726;2023-03-19T13:55:54;15.00;99.90
11824;DHT22;5969;50.780;7.726;2023-03-19T13:58:24;14.90;99.90
11824;DHT22;5969;50.780;7.726;2023-03-19T14:01:10;15.00;99.90
11824;DHT22;5969;50.780;7.726;2023-03-19T14:03:40;14.80;99.90
11824;DHT22;5969;50.780;7.726;2023-03-19T14:06:29;15.00;99.90
11824;DHT22;5969;50.780;7.726;2023-03-19T14:08:57;14.40;99.90
11824;DHT22;5969;50.780;7.726;2023-03-19T14:11:29;14.60;99.90
11824;DHT22;5969;50.780;7.726;2023-03-19T14:14:00;14.40;99.90
11824;DHT22;5969;50.780;7.726;2023-03-19T14:16:30;14.60;99.90
11824;DHT22;5969;50.780;7.726;2023-03-19T14:19:01;15.30;99.90
11824;DHT22;5969;50.780;7.726;2023-03-19T14:21:34;15.60;99.90
11824;DHT22;5969;50.780;7.726;2023-03-19T14:24:27;16.40;99.90
11824;DHT22;5969;50.780;7.726;2023-03-19T14:26:58;17.80;99.90
11824;DHT22;5969;50.780;7.726;2023-03-19T14:29:27;18.40;99.90
11824;DHT22;5969;50.780;7.726;2023-03-19T14:31:56;18.20;99.90
11824;DHT22;5969;50.780;7.726;2023-03-19T14:34:27;17.00;99.90
11824;DHT22;5969;50.780;7.726;2023-03-19T14:37:00;16.50;99.90
11824;DHT22;5969;50.780;7.726;2023-03-19T14:39:30;16.20;99.90
11824;DHT22;5969;50.780;7.726;2023-03-19T14:42:04;16.10;99.90
11824;DHT22;5969;50.780;7.726;2023-03-19T14:47:57;15.10;99.90
11824;DHT22;5969;50.780;7.726;2023-03-19T14:53:36;14.60;99.90
11824;DHT22;5969;50.780;7.726;2023-03-19T14:56:12;14.00;99.90
11824;DHT22;5969;50.780;7.726;2023-03-19T14:58:48;14.10;99.90
11824;DHT22;5969;50.780;7.726;2023-03-19T15:01:15;14.40;99.90
11824;DHT22;5969;50.780;7.726;2023-03-19T15:03:43;14.70;99.90
11824;DHT22;5969;50.780;7.726;2023-03-19T15:06:12;15.10;99.90
11824;DHT22;5969;50.780;7.726;2023-03-19T15:08:41;15.00;99.90
11824;DHT22;5969;50.780;7.726;2023-03-19T15:11:26;14.90;99.90
11824;DHT22;5969;50.780;7.726;2023-03-19T15:14:23;15.20;99.90
11824;DHT22;5969;50.780;7.726;2023-03-19T15:16:59;15.10;99.90
11824;DHT22;5969;50.780;7.726;2023-03-19T15:19:29;16.40;99.90
11824;DHT22;5969;50.780;7.726;2023-03-19T15:22:03;16.40;99.90
11824;DHT22;5969;50.780;7.726;2023-03-19T15:24:30;15.80;99.90
11824;DHT22;5969;50.780;7.726;2023-03-19T15:26:57;18.70;99.90
11824;DHT22;5969;50.780;7.726;2023-03-19T15:29:32;22.70;99.90
11824;DHT22;5969;50.780;7.726;2023-03-19T15:31:59;22.40;99.90
11824;DHT22;5969;50.780;7.726;2023-03-19T15:34:27;20.10;99.90
11824;DHT22;5969;50.780;7.726;2023-03-19T15:36:59;19.10;99.90
11824;DHT22;5969;50.780;7.726;2023-03-19T15:39:28;17.80;99.90
11824;DHT22;5969;50.780;7.726;2023-03-19T15:41:58;17.10;99.90
11824;DHT22;5969;50.780;7.726;2023-03-19T15:44:28;16.00;99.90
11824;DHT22;5969;50.780;7.726;2023-03-19T15:47:02;15.70;99.90
11824;DHT22;5969;50.780;7.726;2023-03-19T15:49:33;15.50;99.90
11824;DHT22;5969;50.780;7.726;2023-03-19T15:52:02;15.30;99.90
11824;DHT22;5969;50.780;7.726;2023-03-19T15:54:31;18.90;99.90
11824;DHT22;5969;50.780;7.726;2023-03-19T15:56:58;22.40;99.90
11824;DHT22;5969;50.780;7.726;2023-03-19T15:59:27;21.00;99.90
11824;DHT22;5969;50.780;7.726;2023-03-19T16:01:59;19.80;99.90
11824;DHT22;5969;50.780;7.726;2023-03-19T16:04:27;20.20;99.90
11824;DHT22;5969;50.780;7.726;2023-03-19T16:06:57;20.70;99.90
11824;DHT22;5969;50.780;7.726;2023-03-19T16:09:30;19.80;99.90
11824;DHT22;5969;50.780;7.726;2023-03-19T16:11:57;18.70;99.90
11824;DHT22;5969;50.780;7.726;2023-03-19T16:14:25;18.60;99.90
11824;DHT22;5969;50.780;7.726;2023-03-19T16:17:10;18.00;99.90
11824;DHT22;5969;50.780;7.726;2023-03-19T16:19:49;17.00;99.90
11824;DHT22;5969;50.780;7.726;2023-03-19T16:22:19;16.70;99.90
11824;DHT22;5969;50.780;7.726;2023-03-19T16:24:47;15.30;99.90
11824;DHT22;5969;50.780;7.726;2023-03-19T16:27:32;15.10;99.90
11824;DHT22;5969;50.780;7.726;2023-03-19T16:29:59;14.50;99.90
11824;DHT22;5969;50.780;7.726;2023-03-19T16:32:28;14.20;99.90
11824;DHT22;5969;50.780;7.726;2023-03-19T16:35:01;14.00;99.90
11824;DHT22;5969;50.780;7.726;2023-03-19T16:37:37;14.00;99.90
11824;DHT22;5969;50.780;7.726;2023-03-19T16:40:34;14.20;99.90
11824;DHT22;5969;50.780;7.726;2023-03-19T16:43:05;16.00;99.90
11824;DHT22;5969;50.780;7.726;2023-03-19T16:45:32;16.60;99.90
11824;DHT22;5969;50.780;7.726;2023-03-19T16:48:01;16.20;99.90
11824;DHT22;5969;50.780;7.726;2023-03-19T16:50:30;15.70;99.90
11824;DHT22;5969;50.780;7.726;2023-03-19T16:52:59;15.20;99.90
11824;DHT22;5969;50.780;7.726;2023-03-19T16:55:28;14.80;99.90
11824;DHT22;5969;50.780;7.726;2023-03-19T16:57:57;14.50;99.90
11824;DHT22;5969;50.780;7.726;2023-03-19T17:00:26;14.40;99.90
11824;DHT22;5969;50.780;7.726;2023-03-19T17:02:53;14.30;99.90
11824;DHT22;5969;50.780;7.726;2023-03-19T17:05:23;13.90;99.90
11824;DHT22;5969;50.780;7.726;2023-03-19T17:07:50;13.70;99.90
11824;DHT22;5969;50.780;7.726;2023-03-19T17:10:21;13.60;99.90
11824;DHT22;5969;50.780;7.726;2023-03-19T17:12:49;13.70;99.90
11824;DHT22;5969;50.780;7.726;2023-03-19T17:15:22;13.60;99.90
11824;DHT22;5969;50.780;7.726;2023-03-19T17:17:50;13.50;99.90
11824;DHT22;5969;50.780;7.726;2023-03-19T17:20:18;13.30;99.90
11824;DHT22;5969;50.780;7.726;2023-03-19T17:22:48;13.20;99.90
11824;DHT22;5969;50.780;7.726;2023-03-19T17:25:15;13.10;99.90
11824;DHT22;5969;50.780;7.726;2023-03-19T17:27:43;12.90;99.90
11824;DHT22;5969;50.780;7.726;2023-03-19T17:30:11;12.70;99.90
11824;DHT22;5969;50.780;7.726;2023-03-19T17:32:40;12.40;99.90
11824;DHT22;5969;50.780;7.726;2023-03-19T17:35:13;12.40;99.90
11824;DHT22;5969;50.780;7.726;2023-03-19T17:37:40;12.40;99.90
11824;DHT22;5969;50.780;7.726;2023-03-19T17:40:16;12.40;99.90
11824;DHT22;5969;50.780;7.726;2023-03-19T17:42:43;12.40;99.90
11824;DHT22;5969;50.780;7.726;2023-03-19T17:45:12;12.30;99.90
11824;DHT22;5969;50.780;7.726;2023-03-19T17:47:40;12.20;99.90
11824;DHT22;5969;50.780;7.726;2023-03-19T17:50:14;12.40;99.90
11824;DHT22;5969;50.780;7.726;2023-03-19T17:52:43;12.30;99.90
11824;DHT22;5969;50.780;7.726;2023-03-19T17:55:16;12.30;99.90
11824;DHT22;5969;50.780;7.726;2023-03-19T17:57:44;12.20;99.90
11824;DHT22;5969;50.780;7.726;2023-03-19T18:00:11;12.10;99.90
11824;DHT22;5969;50.780;7.726;2023-03-19T18:02:39;12.10;99.90
11824;DHT22;5969;50.780;7.726;2023-03-19T18:05:13;12.20;99.90
11824;DHT22;5969;50.780;7.726;2023-03-19T18:07:41;12.20;99.90
11824;DHT22;5969;50.780;7.726;2023-03-19T18:10:15;12.20;99.90
11824;DHT22;5969;50.780;7.726;2023-03-19T18:12:42;12.20;99.90
11824;DHT22;5969;50.780;7.726;2023-03-19T18:15:10;12.10;99.90
11824;DHT22;5969;50.780;7.726;2023-03-19T18:17:37;11.90;99.90
11824;DHT22;5969;50.780;7.726;2023-03-19T18:20:05;11.90;99.90
11824;DHT22;5969;50.780;7.726;2023-03-19T18:22:31;11.90;99.90
11824;DHT22;5969;50.780;7.726;2023-03-19T18:24:58;11.80;99.90
11824;DHT22;5969;50.780;7.726;2023-03-19T18:27:26;11.70;99.90
11824;DHT22;5969;50.780;7.726;2023-03-19T18:29:53;11.60;99.90
11824;DHT22;5969;50.780;7.726;2023-03-19T18:32:24;11.50;99.90
11824;DHT22;5969;50.780;7.726;2023-03-19T18:34:51;11.50;99.90
11824;DHT22;5969;50.780;7.726;2023-03-19T18:37:18;11.40;99.90
11824;DHT22;5969;50.780;7.726;2023-03-19T18:39:45;11.30;99.90
11824;DHT22;5969;50.780;7.726;2023-03-19T18:42:13;11.20;99.90
11824;DHT22;5969;50.780;7.726;2023-03-19T18:44:41;11.20;99.90
11824;DHT22;5969;50.780;7.726;2023-03-19T18:47:12;11.20;99.90
11824;DHT22;5969;50.780;7.726;2023-03-19T18:49:39;11.20;99.90
11824;DHT22;5969;50.780;7.726;2023-03-19T18:52:07;11.20;99.90
11824;DHT22;5969;50.780;7.726;2023-03-19T18:54:35;11.30;99.90
11824;DHT22;5969;50.780;7.726;2023-03-19T18:57:01;11.40;99.90
11824;DHT22;5969;50.780;7.726;2023-03-19T18:59:30;11.40;99.90
11824;DHT22;5969;50.780;7.726;2023-03-19T19:02:01;11.40;99.90
11824;DHT22;5969;50.780;7.726;2023-03-19T19:04:28;11.30;99.90
11824;DHT22;5969;50.780;7.726;2023-03-19T19:06:55;11.40;99.90
11824;DHT22;5969;50.780;7.726;2023-03-19T19:09:22;11.50;99.90
11824;DHT22;5969;50.780;7.726;2023-03-19T19:11:49;11.50;99.90
11824;DHT22;5969;50.780;7.726;2023-03-19T19:14:20;11.50;99.90
11824;DHT22;5969;50.780;7.726;2023-03-19T19:16:48;11.70;99.90
11824;DHT22;5969;50.780;7.726;2023-03-19T19:19:18;11.70;99.90
11824;DHT22;5969;50.780;7.726;2023-03-19T19:21:46;11.50;99.90
11824;DHT22;5969;50.780;7.726;2023-03-19T19:24:13;11.50;99.90
11824;DHT22;5969;50.780;7.726;2023-03-19T19:26:43;11.50;99.90
11824;DHT22;5969;50.780;7.726;2023-03-19T19:29:12;11.40;99.90
11824;DHT22;5969;50.780;7.726;2023-03-19T19:31:43;11.30;99.90
11824;DHT22;5969;50.780;7.726;2023-03-19T19:34:12;11.20;99.90
11824;DHT22;5969;50.780;7.726;2023-03-19T19:36:41;11.20;99.90
11824;DHT22;5969;50.780;7.726;2023-03-19T19:39:08;11.10;99.90
11824;DHT22;5969;50.780;7.726;2023-03-19T19:41:36;11.10;99.90
11824;DHT22;5969;50.780;7.726;2023-03-19T19:44:03;11.10;99.90
11824;DHT22;5969;50.780;7.726;2023-03-19T19:46:31;11.00;99.90
11824;DHT22;5969;50.780;7.726;2023-03-19T19:48:58;11.00;99.90
11824;DHT22;5969;50.780;7.726;2023-03-19T19:51:26;11.00;99.90
11824;DHT22;5969;50.780;7.726;2023-03-19T19:53:54;11.00;99.90
11824;DHT22;5969;50.780;7.726;2023-03-19T19:56:23;10.90;99.90
11824;DHT22;5969;50.780;7.726;2023-03-19T19:58:51;10.80;99.90
11824;DHT22;5969;50.780;7.726;2023-03-19T20:01:20;10.70;99.90
11824;DHT22;5969;50.780;7.726;2023-03-19T20:03:48;10.60;99.90
11824;DHT22;5969;50.780;7.726;2023-03-19T20:06:16;10.60;99.90
11824;DHT22;5969;50.780;7.726;2023-03-19T20:08:44;10.60;99.90
11824;DHT22;5969;50.780;7.726;2023-03-19T20:11:18;10.70;99.90
11824;DHT22;5969;50.780;7.726;2023-03-19T20:13:47;10.70;99.90
11824;DHT22;5969;50.780;7.726;2023-03-19T20:16:17;10.60;99.90
11824;DHT22;5969;50.780;7.726;2023-03-19T20:18:44;10.60;99.90
11824;DHT22;5969;50.780;7.726;2023-03-19T20:21:12;10.50;99.90
11824;DHT22;5969;50.780;7.726;2023-03-19T20:23:40;10.50;99.90
11824;DHT22;5969;50.780;7.726;2023-03-19T20:26:10;10.50;99.90
11824;DHT22;5969;50.780;7.726;2023-03-19T20:28:41;10.50;99.90
11824;DHT22;5969;50.780;7.726;2023-03-19T20:31:15;10.50;99.90
11824;DHT22;5969;50.780;7.726;2023-03-19T20:33:42;10.40;99.90
11824;DHT22;5969;50.780;7.726;2023-03-19T20:36:12;10.50;99.90
11824;DHT22;5969;50.780;7.726;2023-03-19T20:38:40;10.50;99.90
11824;DHT22;5969;50.780;7.726;2023-03-19T20:41:15;10.50;99.90
11824;DHT22;5969;50.780;7.726;2023-03-19T20:43:44;10.60;99.90
11824;DHT22;5969;50.780;7.726;2023-03-19T20:46:11;10.60;99.90
11824;DHT22;5969;50.780;7.726;2023-03-19T20:48:38;10.60;99.90
11824;DHT22;5969;50.780;7.726;2023-03-19T20:51:05;10.60;99.90
11824;DHT22;5969;50.780;7.726;2023-03-19T20:53:32;10.60;99.90
11824;DHT22;5969;50.780;7.726;2023-03-19T20:55:58;10.70;99.90
11824;DHT22;5969;50.780;7.726;2023-03-19T20:58:29;10.60;99.90
11824;DHT22;5969;50.780;7.726;2023-03-19T21:00:58;10.60;99.90
11824;DHT22;5969;50.780;7.726;2023-03-19T21:03:26;10.40;99.90
11824;DHT22;5969;50.780;7.726;2023-03-19T21:05:54;10.30;99.90
11824;DHT22;5969;50.780;7.726;2023-03-19T21:08:29;10.20;99.90
11824;DHT22;5969;50.780;7.726;2023-03-19T21:10:58;10.10;99.90
11824;DHT22;5969;50.780;7.726;2023-03-19T21:13:25;10.10;99.90
11824;DHT22;5969;50.780;7.726;2023-03-19T21:15:53;10.00;99.90
11824;DHT22;5969;50.780;7.726;2023-03-19T21:18:22;10.00;99.90
11824;DHT22;5969;50.780;7.726;2023-03-19T21:20:52;10.10;99.90
11824;DHT22;5969;50.780;7.726;2023-03-19T21:23:25;10.10;99.90
11824;DHT22;5969;50.780;7.726;2023-03-19T21:25:52;10.10;99.90
11824;DHT22;5969;50.780;7.726;2023-03-19T21:28:24;10.00;99.90
11824;DHT22;5969;50.780;7.726;2023-03-19T21:30:51;10.00;99.90
11824;DHT22;5969;50.780;7.726;2023-03-19T21:33:23;10.00;99.90
11824;DHT22;5969;50.780;7.726;2023-03-19T21:35:52;10.00;99.90
11824;DHT22;5969;50.780;7.726;2023-03-19T21:38:19;9.90;99.90
11824;DHT22;5969;50.780;7.726;2023-03-19T21:40:47;9.80;99.90
11824;DHT22;5969;50.780;7.726;2023-03-19T21:43:17;9.70;99.90
11824;DHT22;5969;50.780;7.726;2023-03-19T21:45:47;9.70;99.90
11824;DHT22;5969;50.780;7.726;2023-03-19T21:48:23;9.60;99.90
11824;DHT22;5969;50.780;7.726;2023-03-19T21:50:52;9.60;99.90
11824;DHT22;5969;50.780;7.726;2023-03-19T21:53:19;9.60;99.90
11824;DHT22;5969;50.780;7.726;2023-03-19T21:55:46;9.60;99.90
11824;DHT22;5969;50.780;7.726;2023-03-19T21:58:15;9.70;99.90
11824;DHT22;5969;50.780;7.726;2023-03-19T22:03:29;9.60;99.90
11824;DHT22;5969;50.780;7.726;2023-03-19T22:05:56;9.60;99.90
11824;DHT22;5969;50.780;7.726;2023-03-19T22:08:31;9.70;99.90
11824;DHT22;5969;50.780;7.726;2023-03-19T22:10:59;9.70;99.90
11824;DHT22;5969;50.780;7.726;2023-03-19T22:13:29;9.60;99.90
11824;DHT22;5969;50.780;7.726;2023-03-19T22:16:00;9.60;99.90
11824;DHT22;5969;50.780;7.726;2023-03-19T22:18:28;9.70;99.90
11824;DHT22;5969;50.780;7.726;2023-03-19T22:20:56;9.60;99.90
11824;DHT22;5969;50.780;7.726;2023-03-19T22:23:23;9.60;99.90
11824;DHT22;5969;50.780;7.726;2023-03-19T22:25:51;9.70;99.90
11824;DHT22;5969;50.780;7.726;2023-03-19T22:28:23;9.70;99.90
11824;DHT22;5969;50.780;7.726;2023-03-19T22:30:52;9.60;99.90
11824;DHT22;5969;50.780;7.726;2023-03-19T22:33:20;9.80;99.90
11824;DHT22;5969;50.780;7.726;2023-03-19T22:35:49;9.80;99.90
11824;DHT22;5969;50.780;7.726;2023-03-19T22:38:18;9.80;99.90
11824;DHT22;5969;50.780;7.726;2023-03-19T22:40:47;9.80;99.90
11824;DHT22;5969;50.780;7.726;2023-03-19T22:43:18;9.90;99.90
11824;DHT22;5969;50.780;7.726;2023-03-19T22:45:50;10.00;99.90
11824;DHT22;5969;50.780;7.726;2023-03-19T22:48:19;9.90;99.90
11824;DHT22;5969;50.780;7.726;2023-03-19T22:50:46;10.00;99.90
11824;DHT22;5969;50.780;7.726;2023-03-19T22:53:23;10.10;99.90
11824;DHT22;5969;50.780;7.726;2023-03-19T22:55:51;10.10;99.90
11824;DHT22;5969;50.780;7.726;2023-03-19T22:58:18;10.10;99.90
11824;DHT22;5969;50.780;7.726;2023-03-19T23:00:46;10.00;99.90
11824;DHT22;5969;50.780;7.726;2023-03-19T23:03:17;10.00;99.90
11824;DHT22;5969;50.780;7.726;2023-03-19T23:05:47;10.00;99.90
11824;DHT22;5969;50.780;7.726;2023-03-19T23:08:30;10.20;99.90
11824;DHT22;5969;50.780;7.726;2023-03-19T23:10:57;10.20;99.90
11824;DHT22;5969;50.780;7.726;2023-03-19T23:13:24;10.30;99.90
11824;DHT22;5969;50.780;7.726;2023-03-19T23:15:54;10.30;99.90
11824;DHT22;5969;50.780;7.726;2023-03-19T23:18:27;10.30;99.90
11824;DHT22;5969;50.780;7.726;2023-03-19T23:20:56;10.20;99.90
11824;DHT22;5969;50.780;7.726;2023-03-19T23:23:23;10.20;99.90
11824;DHT22;5969;50.780;7.726;2023-03-19T23:25:52;10.20;99.90
11824;DHT22;5969;50.780;7.726;2023-03-19T23:28:21;10.30;99.90
11824;DHT22;5969;50.780;7.726;2023-03-19T23:30:50;10.30;99.90
11824;DHT22;5969;50.780;7.726;2023-03-19T23:33:18;10.20;99.90
11824;DHT22;5969;50.780;7.726;2023-03-19T23:35:46;10.10;99.90
11824;DHT22;5969;50.780;7.726;2023-03-19T23:38:14;10.20;99.90
11824;DHT22;5969;50.780;7.726;2023-03-19T23:40:42;10.20;99.90
11824;DHT22;5969;50.780;7.726;2023-03-19T23:43:16;10.20;99.90
11824;DHT22;5969;50.780;7.726;2023-03-19T23:45:44;10.20;99.90
11824;DHT22;5969;50.780;7.726;2023-03-19T23:48:14;10.10;99.90
11824;DHT22;5969;50.780;7.726;2023-03-19T23:50:44;10.20;99.90
11824;DHT22;5969;50.780;7.726;2023-03-19T23:53:17;10.20;99.90
11824;DHT22;5969;50.780;7.726;2023-03-19T23:55:46;10.10;99.90
11824;DHT22;5969;50.780;7.726;2023-03-19T23:58:16;10.10;99.90
